createdAt,value
2018-10-21T00:01:20.955Z,57.72
2018-10-21T00:03:48.747Z,58.15
2018-10-21T00:06:16.520Z,57.77
2018-10-21T00:08:44.458Z,57.93
2018-10-21T00:11:12.326Z,58.03
2018-10-21T00:13:40.092Z,58.21
2018-10-21T00:16:07.878Z,58.02
2018-10-21T00:18:35.685Z,58.07
2018-10-21T00:21:03.558Z,58.36
2018-10-21T00:23:31.511Z,58.20
2018-10-21T00:25:59.320Z,58.21
2018-10-21T00:28:27.351Z,58.02
2018-10-21T00:30:55.131Z,57.94
2018-10-21T00:33:22.940Z,58.24
2018-10-21T00:35:50.779Z,57.97
2018-10-21T00:38:18.571Z,58.00
2018-10-21T00:40:46.429Z,58.13
2018-10-21T00:43:14.228Z,58.12
2018-10-21T00:45:42.018Z,57.86
2018-10-21T00:48:09.799Z,58.35
2018-10-21T00:50:37.583Z,57.96
2018-10-21T00:53:05.405Z,58.27
2018-10-21T00:55:33.169Z,58.47
2018-10-21T00:58:01.592Z,58.20
2018-10-21T01:00:29.392Z,58.08
2018-10-21T01:02:57.583Z,58.40
2018-10-21T01:05:26.419Z,58.39
2018-10-21T01:07:54.217Z,58.53
2018-10-21T01:10:22.011Z,58.30
2018-10-21T01:12:49.783Z,58.25
2018-10-21T01:15:17.647Z,58.39
2018-10-21T01:17:45.415Z,58.38
2018-10-21T01:20:13.230Z,58.16
2018-10-21T01:22:41.592Z,58.53
2018-10-21T01:25:09.894Z,58.74
2018-10-21T01:27:38.731Z,58.26
2018-10-21T01:30:08.415Z,58.49
2018-10-21T01:32:36.235Z,58.59
2018-10-21T01:35:04.895Z,58.82
2018-10-21T01:37:32.751Z,58.82
2018-10-21T01:40:47.785Z,58.92
2018-10-21T01:43:17.748Z,58.85
2018-10-21T01:45:45.623Z,59.15
2018-10-21T01:48:14.696Z,59.04
2018-10-21T01:50:42.790Z,59.15
2018-10-21T01:53:11.663Z,59.13
2018-10-21T01:55:39.471Z,58.93
2018-10-21T01:58:07.516Z,58.99
2018-10-21T02:00:35.666Z,58.86
2018-10-21T02:03:03.790Z,58.95
2018-10-21T02:05:32.038Z,58.74
2018-10-21T02:07:59.911Z,59.17
2018-10-21T02:10:28.382Z,58.84
2018-10-21T02:12:56.514Z,58.90
2018-10-21T02:15:25.328Z,59.21
2018-10-21T02:17:53.118Z,59.25
2018-10-21T02:20:21.691Z,59.36
2018-10-21T02:22:49.963Z,59.06
2018-10-21T02:25:17.846Z,59.26
2018-10-21T02:27:46.423Z,59.33
2018-10-21T02:30:16.227Z,59.29
2018-10-21T02:32:44.917Z,59.61
2018-10-21T02:35:16.376Z,59.49
2018-10-21T02:37:44.432Z,59.60
2018-10-21T02:41:33.612Z,59.66
2018-10-21T02:44:02.087Z,59.57
2018-10-21T02:46:30.563Z,59.96
2018-10-21T02:48:59.120Z,59.95
2018-10-21T02:51:26.941Z,59.95
2018-10-21T02:53:57.032Z,60.01
2018-10-21T02:56:24.879Z,60.06
2018-10-21T02:58:52.752Z,60.26
2018-10-21T03:01:20.573Z,59.95
2018-10-21T03:03:52.655Z,60.15
2018-10-21T03:06:20.507Z,60.59
2018-10-21T03:08:48.425Z,60.30
2018-10-21T03:11:16.735Z,59.95
2018-10-21T03:13:44.640Z,60.16
2018-10-21T03:16:12.514Z,60.31
2018-10-21T03:18:40.424Z,60.38
2018-10-21T03:21:08.320Z,60.57
2018-10-21T03:23:36.155Z,60.54
2018-10-21T03:26:04.207Z,60.00
2018-10-21T03:28:32.591Z,60.40
2018-10-21T03:31:00.775Z,60.08
2018-10-21T03:33:28.843Z,60.12
2018-10-21T03:35:56.760Z,60.08
2018-10-21T03:38:24.707Z,60.22
2018-10-21T03:40:52.592Z,60.07
2018-10-21T03:43:20.439Z,60.16
2018-10-21T03:45:48.251Z,60.13
2018-10-21T03:48:16.077Z,59.71
2018-10-21T03:50:44.007Z,60.19
2018-10-21T03:53:11.859Z,60.38
2018-10-21T03:55:40.850Z,60.10
2018-10-21T03:58:08.835Z,60.22
2018-10-21T04:00:37.211Z,60.09
2018-10-21T04:05:38.560Z,60.19
2018-10-21T04:08:06.487Z,59.97
2018-10-21T04:10:34.510Z,59.82
2018-10-21T04:13:02.479Z,59.97
2018-10-21T04:15:30.411Z,60.48
2018-10-21T04:17:58.248Z,59.92
2018-10-21T04:20:26.152Z,59.66
2018-10-21T04:22:55.180Z,59.94
2018-10-21T04:25:23.967Z,60.03
2018-10-21T04:27:52.752Z,60.48
2018-10-21T04:30:29.507Z,60.27
2018-10-21T04:34:01.810Z,60.59
2018-10-21T04:36:30.946Z,60.14
2018-10-21T04:39:41.567Z,60.04
2018-10-21T04:42:09.379Z,60.57
2018-10-21T04:44:40.225Z,60.28
2018-10-21T04:47:08.313Z,60.47
2018-10-21T04:49:35.983Z,60.21
2018-10-21T04:52:03.957Z,60.25
2018-10-21T04:54:33.871Z,60.10
2018-10-21T04:57:02.359Z,60.11
2018-10-21T04:59:30.196Z,59.94
2018-10-21T05:01:58.042Z,60.04
2018-10-21T05:04:30.057Z,60.12
2018-10-21T05:06:57.941Z,59.92
2018-10-21T05:09:25.851Z,60.17
2018-10-21T05:11:53.988Z,60.07
2018-10-21T05:14:22.034Z,60.22
2018-10-21T05:16:49.856Z,60.09
2018-10-21T05:19:18.074Z,60.04
2018-10-21T05:21:45.974Z,60.00
2018-10-21T05:24:13.924Z,60.07
2018-10-21T05:26:41.755Z,59.82
2018-10-21T05:29:09.612Z,59.94
2018-10-21T05:31:37.444Z,60.06
2018-10-21T05:34:05.619Z,60.52
2018-10-21T05:36:33.482Z,60.61
2018-10-21T05:39:01.327Z,60.04
2018-10-21T05:41:29.153Z,60.01
2018-10-21T05:43:57.049Z,60.19
2018-10-21T05:46:50.341Z,60.11
2018-10-21T05:49:18.170Z,60.19
2018-10-21T05:51:47.192Z,60.27
2018-10-21T05:54:15.956Z,60.00
2018-10-21T05:56:45.024Z,60.03
2018-10-21T05:59:13.534Z,60.32
2018-10-21T06:01:41.872Z,60.34
2018-10-21T06:04:10.669Z,60.42
2018-10-21T06:06:38.876Z,60.37
2018-10-21T06:09:08.831Z,60.11
2018-10-21T06:11:36.676Z,60.24
2018-10-21T06:14:05.204Z,60.46
2018-10-21T06:16:38.699Z,60.15
2018-10-21T06:19:11.179Z,60.36
2018-10-21T06:21:40.043Z,60.57
2018-10-21T06:24:07.972Z,60.45
2018-10-21T06:26:35.804Z,60.70
2018-10-21T06:29:03.705Z,60.56
2018-10-21T06:31:31.580Z,60.41
2018-10-21T06:33:59.392Z,60.52
2018-10-21T06:36:27.211Z,60.45
2018-10-21T06:38:55.300Z,60.62
2018-10-21T06:41:23.177Z,60.67
2018-10-21T06:43:51.044Z,60.68
2018-10-21T06:46:18.905Z,60.65
2018-10-21T06:48:46.767Z,60.78
2018-10-21T06:51:14.639Z,60.48
2018-10-21T06:53:42.502Z,60.71
2018-10-21T06:56:10.341Z,60.75
2018-10-21T06:58:38.243Z,60.63
2018-10-21T07:01:11.759Z,60.75
2018-10-21T07:03:39.637Z,60.76
2018-10-21T07:06:11.845Z,60.61
2018-10-21T07:08:39.787Z,60.71
2018-10-21T07:11:07.636Z,60.67
2018-10-21T07:13:35.626Z,60.47
2018-10-21T07:16:04.162Z,60.44
2018-10-21T07:18:33.137Z,60.88
2018-10-21T07:21:01.319Z,60.44
2018-10-21T07:23:29.377Z,60.85
2018-10-21T07:25:57.281Z,60.59
2018-10-21T07:28:25.540Z,60.47
2018-10-21T07:30:53.587Z,60.60
2018-10-21T07:33:21.409Z,60.62
2018-10-21T07:35:49.250Z,60.62
2018-10-21T07:38:17.124Z,60.44
2018-10-21T07:40:45.232Z,60.63
2018-10-21T07:43:13.057Z,60.82
2018-10-21T07:45:40.863Z,60.94
2018-10-21T07:48:08.767Z,60.53
2018-10-21T07:50:36.587Z,60.52
2018-10-21T07:53:04.753Z,60.79
2018-10-21T07:55:32.903Z,60.86
2018-10-21T07:58:00.789Z,60.80
2018-10-21T08:00:28.756Z,60.73
2018-10-21T08:02:56.729Z,60.83
2018-10-21T08:05:42.217Z,60.96
2018-10-21T08:08:13.538Z,60.70
2018-10-21T08:10:41.803Z,61.08
2018-10-21T08:13:11.678Z,60.83
2018-10-21T08:15:40.175Z,60.71
2018-10-21T08:18:09.164Z,60.60
2018-10-21T08:20:37.548Z,60.35
2018-10-21T08:23:06.538Z,60.46
2018-10-21T08:25:34.643Z,60.53
2018-10-21T08:28:02.809Z,60.56
2018-10-21T08:30:30.851Z,60.27
2018-10-21T08:32:59.576Z,60.15
2018-10-21T08:35:27.342Z,60.60
2018-10-21T08:37:55.200Z,60.42
2018-10-21T08:40:23.139Z,60.39
2018-10-21T08:42:54.494Z,60.24
2018-10-21T08:45:22.710Z,60.22
2018-10-21T08:47:50.588Z,60.07
2018-10-21T08:50:18.479Z,60.49
2018-10-21T08:52:46.294Z,60.01
2018-10-21T08:55:14.192Z,60.38
2018-10-21T08:57:42.272Z,60.14
2018-10-21T09:00:13.347Z,60.23
2018-10-21T09:02:41.623Z,60.50
2018-10-21T09:05:11.144Z,60.17
2018-10-21T09:07:39.493Z,60.49
2018-10-21T09:10:09.215Z,60.12
2018-10-21T09:12:37.276Z,60.22
2018-10-21T09:15:07.504Z,60.30
2018-10-21T09:17:35.418Z,60.21
2018-10-21T09:20:03.736Z,60.40
2018-10-21T09:22:31.981Z,60.22
2018-10-21T09:24:59.990Z,60.23
2018-10-21T09:27:27.795Z,60.01
2018-10-21T09:29:55.752Z,59.90
2018-10-21T09:32:23.749Z,59.93
2018-10-21T09:34:51.540Z,59.59
2018-10-21T09:37:19.464Z,59.70
2018-10-21T09:39:47.299Z,60.09
2018-10-21T09:42:15.212Z,59.92
2018-10-21T09:44:43.055Z,59.62
2018-10-21T09:47:10.845Z,59.55
2018-10-21T09:49:38.615Z,59.49
2018-10-21T09:52:06.583Z,59.23
2018-10-21T09:54:34.502Z,59.63
2018-10-21T09:57:02.624Z,59.23
2018-10-21T09:59:30.440Z,59.54
2018-10-21T10:02:04.145Z,59.30
2018-10-21T10:04:32.243Z,59.16
2018-10-21T10:07:00.446Z,59.66
2018-10-21T10:09:28.312Z,59.02
2018-10-21T10:11:56.280Z,59.16
2018-10-21T10:14:24.248Z,58.48
2018-10-21T10:16:52.206Z,58.60
2018-10-21T10:19:20.040Z,58.48
2018-10-21T10:21:47.960Z,59.04
2018-10-21T10:24:16.313Z,58.34
2018-10-21T10:26:44.139Z,58.75
2018-10-21T10:29:12.088Z,58.40
2018-10-21T10:31:39.940Z,58.03
2018-10-21T10:34:07.935Z,58.08
2018-10-21T10:36:35.931Z,57.54
2018-10-21T10:39:07.072Z,56.63
2018-10-21T10:41:34.957Z,56.93
2018-10-21T10:44:02.876Z,56.34
2018-10-21T10:46:34.491Z,55.31
2018-10-21T10:49:02.562Z,55.02
2018-10-21T10:51:30.371Z,54.79
2018-10-21T10:53:58.412Z,54.53
2018-10-21T10:56:26.226Z,53.18
2018-10-21T10:58:54.025Z,52.98
2018-10-21T11:01:21.875Z,52.24
2018-10-21T11:03:49.715Z,51.78
2018-10-21T11:06:17.675Z,51.47
2018-10-21T11:08:45.576Z,50.91
2018-10-21T11:11:13.731Z,51.08
2018-10-21T11:13:41.633Z,50.67
2018-10-21T11:16:09.629Z,50.13
2018-10-21T11:18:37.609Z,49.79
2018-10-21T11:21:05.612Z,48.74
2018-10-21T11:23:33.475Z,49.16
2018-10-21T11:26:01.841Z,48.49
2018-10-21T11:28:29.696Z,48.01
2018-10-21T11:30:57.585Z,47.63
2018-10-21T11:33:25.451Z,47.53
2018-10-21T11:35:53.323Z,47.74
2018-10-21T11:38:21.126Z,46.77
2018-10-21T11:40:49.122Z,46.36
2018-10-21T11:43:17.049Z,47.00
2018-10-21T11:45:45.076Z,46.60
2018-10-21T11:48:16.453Z,45.98
2018-10-21T11:50:44.272Z,46.03
2018-10-21T11:53:12.222Z,46.26
2018-10-21T11:55:41.149Z,45.28
2018-10-21T11:58:10.941Z,45.85
2018-10-21T12:00:38.843Z,44.79
2018-10-21T12:03:07.393Z,45.23
2018-10-21T12:05:35.335Z,44.04
2018-10-21T12:08:03.384Z,44.26
2018-10-21T12:10:31.366Z,43.90
2018-10-21T12:12:59.257Z,44.51
2018-10-21T12:15:27.115Z,44.16
2018-10-21T12:17:55.061Z,44.03
2018-10-21T12:20:22.989Z,43.44
2018-10-21T12:22:50.872Z,42.95
2018-10-21T12:25:18.703Z,43.37
2018-10-21T12:27:46.477Z,43.24
2018-10-21T12:30:14.289Z,42.49
2018-10-21T12:32:42.231Z,42.52
2018-10-21T12:35:11.490Z,42.10
2018-10-21T12:37:39.583Z,41.59
2018-10-21T12:40:08.817Z,41.59
2018-10-21T12:42:37.106Z,41.81
2018-10-21T12:45:07.524Z,42.28
2018-10-21T12:47:35.411Z,41.28
2018-10-21T12:50:07.083Z,41.49
2018-10-21T12:52:35.941Z,40.99
2018-10-21T12:55:05.031Z,41.16
2018-10-21T12:57:33.088Z,41.36
2018-10-21T13:00:00.958Z,40.68
2018-10-21T13:02:28.825Z,40.61
2018-10-21T13:04:56.855Z,40.78
2018-10-21T13:07:33.979Z,39.83
2018-10-21T13:10:01.948Z,40.58
2018-10-21T13:12:29.852Z,39.59
2018-10-21T13:14:57.711Z,40.30
2018-10-21T13:17:25.556Z,39.64
2018-10-21T13:19:53.451Z,39.61
2018-10-21T13:22:21.555Z,38.86
2018-10-21T13:24:49.515Z,38.80
2018-10-21T13:27:17.364Z,39.11
2018-10-21T13:29:45.189Z,38.51
2018-10-21T13:32:13.018Z,39.34
2018-10-21T13:34:41.057Z,38.60
2018-10-21T13:37:08.861Z,38.59
2018-10-21T13:39:36.611Z,38.43
2018-10-21T13:42:04.572Z,38.15
2018-10-21T13:44:32.516Z,38.21
2018-10-21T13:47:00.368Z,39.09
2018-10-21T13:49:28.273Z,38.95
2018-10-21T13:51:57.225Z,38.14
2018-10-21T13:54:24.879Z,38.96
2018-10-21T13:56:52.737Z,38.61
2018-10-21T13:59:20.612Z,38.09
2018-10-21T14:01:51.529Z,38.83
2018-10-21T14:04:19.536Z,38.20
2018-10-21T14:06:47.233Z,38.45
2018-10-21T14:09:16.234Z,38.72
2018-10-21T14:11:44.051Z,38.04
2018-10-21T14:14:11.966Z,38.79
2018-10-21T14:16:40.109Z,38.53
2018-10-21T14:19:08.472Z,38.59
2018-10-21T14:21:36.312Z,38.89
2018-10-21T14:24:04.237Z,37.67
2018-10-21T14:26:32.211Z,38.27
2018-10-21T14:29:00.042Z,37.62
2018-10-21T14:31:28.169Z,38.71
2018-10-21T14:33:56.077Z,37.73
2018-10-21T14:36:25.181Z,37.61
2018-10-21T14:38:53.087Z,38.33
2018-10-21T14:41:20.924Z,37.94
2018-10-21T14:43:49.439Z,37.62
2018-10-21T14:46:17.324Z,38.53
2018-10-21T14:48:45.292Z,38.33
2018-10-21T14:51:13.345Z,37.59
2018-10-21T14:53:41.188Z,37.96
2018-10-21T14:56:12.321Z,38.17
2018-10-21T14:58:40.343Z,37.31
2018-10-21T15:01:08.561Z,37.74
2018-10-21T15:03:37.114Z,37.39
2018-10-21T15:06:04.992Z,38.50
2018-10-21T15:08:33.028Z,37.65
2018-10-21T15:11:01.456Z,37.18
2018-10-21T15:13:29.416Z,38.38
2018-10-21T15:15:57.317Z,38.25
2018-10-21T15:18:25.346Z,37.62
2018-10-21T15:20:53.291Z,38.24
2018-10-21T15:23:21.304Z,38.92
2018-10-21T15:25:49.007Z,38.59
2018-10-21T15:28:17.002Z,38.44
2018-10-21T15:30:44.785Z,38.73
2018-10-21T15:33:12.761Z,38.53
2018-10-21T15:35:40.588Z,38.68
2018-10-21T15:38:08.817Z,39.22
2018-10-21T15:40:37.336Z,39.78
2018-10-21T15:43:05.225Z,39.32
2018-10-21T15:45:33.222Z,39.10
2018-10-21T15:48:01.488Z,39.43
2018-10-21T15:50:29.583Z,40.03
2018-10-21T15:52:57.439Z,39.49
2018-10-21T15:55:25.797Z,40.27
2018-10-21T15:57:57.713Z,40.45
2018-10-21T16:00:25.576Z,40.55
2018-10-21T16:02:53.744Z,39.88
2018-10-21T16:05:21.624Z,40.78
2018-10-21T16:07:49.786Z,40.88
2018-10-21T16:10:17.753Z,41.09
2018-10-21T16:12:45.781Z,40.72
2018-10-21T16:15:14.872Z,40.63
2018-10-21T16:17:43.848Z,41.40
2018-10-21T16:20:11.759Z,41.42
2018-10-21T16:22:40.820Z,41.00
2018-10-21T16:25:11.059Z,41.50
2018-10-21T16:27:39.293Z,41.94
2018-10-21T16:30:10.368Z,41.23
2018-10-21T16:32:39.230Z,41.25
2018-10-21T16:35:08.017Z,41.57
2018-10-21T16:37:36.071Z,42.48
2018-10-21T16:40:04.652Z,42.06
2018-10-21T16:42:32.655Z,42.35
2018-10-21T16:45:00.706Z,41.79
2018-10-21T16:47:28.596Z,41.79
2018-10-21T16:49:56.662Z,42.22
2018-10-21T16:52:24.623Z,42.78
2018-10-21T16:54:52.649Z,42.76
2018-10-21T16:57:20.649Z,42.43
2018-10-21T16:59:51.867Z,42.17
2018-10-21T17:02:19.701Z,43.05
2018-10-21T17:04:47.566Z,42.67
2018-10-21T17:07:15.614Z,42.60
2018-10-21T17:09:43.826Z,42.55
2018-10-21T17:12:13.299Z,43.42
2018-10-21T17:14:41.255Z,43.25
2018-10-21T17:17:09.239Z,42.81
2018-10-21T17:19:37.108Z,43.16
2018-10-21T17:22:05.126Z,43.14
2018-10-21T17:24:32.988Z,43.62
2018-10-21T17:27:00.854Z,43.81
2018-10-21T17:29:28.843Z,43.84
2018-10-21T17:31:56.693Z,43.88
2018-10-21T17:34:24.796Z,43.85
2018-10-21T17:36:52.906Z,43.73
2018-10-21T17:39:21.156Z,43.76
2018-10-21T17:41:49.248Z,44.47
2018-10-21T17:44:28.448Z,43.92
2018-10-21T17:46:56.524Z,44.21
2018-10-21T17:49:24.459Z,44.83
2018-10-21T17:51:52.475Z,44.74
2018-10-21T17:54:20.452Z,45.05
2018-10-21T17:56:54.017Z,44.50
2018-10-21T17:59:22.315Z,44.86
2018-10-21T18:01:50.429Z,44.83
2018-10-21T18:04:18.527Z,45.36
2018-10-21T18:06:46.450Z,45.57
2018-10-21T18:09:14.612Z,45.41
2018-10-21T18:11:42.977Z,45.75
2018-10-21T18:14:10.996Z,45.30
2018-10-21T18:16:41.140Z,45.96
2018-10-21T18:19:09.330Z,46.30
2018-10-21T18:21:37.250Z,46.22
2018-10-21T18:24:06.129Z,45.96
2018-10-21T18:26:34.140Z,45.80
2018-10-21T18:29:02.310Z,46.66
2018-10-21T18:31:30.459Z,46.57
2018-10-21T18:34:00.098Z,46.86
2018-10-21T18:36:28.457Z,46.41
2018-10-21T18:38:57.171Z,46.88
2018-10-21T18:41:25.843Z,46.64
2018-10-21T18:43:54.942Z,47.16
2018-10-21T18:46:23.052Z,47.05
2018-10-21T18:48:51.376Z,47.15
2018-10-21T18:51:19.419Z,47.19
2018-10-21T18:53:47.372Z,46.92
2018-10-21T18:56:15.358Z,47.42
2018-10-21T18:58:43.553Z,47.28
2018-10-21T19:01:11.779Z,47.15
2018-10-21T19:03:39.899Z,47.90
2018-10-21T19:06:08.095Z,47.76
2018-10-21T19:08:36.122Z,48.35
2018-10-21T19:11:04.961Z,47.97
2018-10-21T19:13:33.298Z,47.27
2018-10-21T19:16:01.242Z,47.47
2018-10-21T19:18:29.750Z,48.29
2018-10-21T19:20:58.104Z,47.75
2018-10-21T19:23:26.206Z,48.17
2018-10-21T19:25:54.316Z,47.86
2018-10-21T19:28:22.204Z,48.28
2018-10-21T19:30:50.258Z,48.36
2018-10-21T19:33:18.215Z,48.21
2018-10-21T19:35:46.189Z,48.05
2018-10-21T19:38:14.190Z,48.48
2018-10-21T19:40:43.177Z,48.43
2018-10-21T19:43:11.140Z,48.26
2018-10-21T19:45:39.759Z,48.81
2018-10-21T19:48:07.932Z,48.40
2018-10-21T19:51:03.756Z,48.93
2018-10-21T19:53:31.704Z,49.00
2018-10-21T19:56:01.004Z,49.31
2018-10-21T19:58:40.402Z,48.80
2018-10-21T20:01:08.280Z,48.94
2018-10-21T20:03:36.232Z,49.50
2018-10-21T20:06:04.337Z,49.29
2018-10-21T20:14:27.616Z,49.67
2018-10-21T20:16:55.455Z,49.76
2018-10-21T20:19:24.189Z,49.68
2018-10-21T20:21:52.077Z,49.57
2018-10-21T20:24:19.884Z,49.80
2018-10-21T20:26:47.775Z,49.71
2018-10-21T20:29:16.061Z,49.97
2018-10-21T20:31:43.867Z,49.29
2018-10-21T20:34:11.693Z,49.63
2018-10-21T20:36:40.036Z,49.65
2018-10-21T20:39:09.003Z,49.52
2018-10-21T20:41:37.279Z,49.38
2018-10-21T20:44:05.580Z,49.78
2018-10-21T20:46:34.623Z,49.77
2018-10-21T20:49:02.921Z,49.50
2018-10-21T20:51:30.872Z,49.74
2018-10-21T20:53:59.379Z,50.00
2018-10-21T20:56:27.154Z,49.66
2018-10-21T20:58:54.980Z,50.14
2018-10-21T21:01:22.967Z,49.83
2018-10-21T21:03:50.970Z,50.07
2018-10-21T21:06:18.903Z,49.97
2018-10-21T21:08:46.616Z,50.26
2018-10-21T21:11:14.770Z,50.04
2018-10-21T21:13:42.542Z,49.79
2018-10-21T21:16:10.339Z,50.22
2018-10-21T21:18:38.160Z,49.95
2018-10-21T21:21:06.027Z,50.31
2018-10-21T21:23:33.837Z,50.39
2018-10-21T21:26:01.814Z,50.38
2018-10-21T21:28:29.731Z,50.49
2018-10-21T21:30:57.486Z,50.45
2018-10-21T21:33:26.252Z,50.47
2018-10-21T21:35:54.039Z,50.36
2018-10-21T21:38:21.856Z,50.66
2018-10-21T21:40:49.716Z,50.38
2018-10-21T21:43:17.521Z,50.75
2018-10-21T21:45:45.411Z,50.38
2018-10-21T21:48:13.308Z,50.89
2018-10-21T21:50:41.898Z,50.80
2018-10-21T21:53:09.688Z,50.99
2018-10-21T21:55:37.500Z,50.94
2018-10-21T21:58:05.906Z,51.09
2018-10-21T22:00:33.824Z,51.06
2018-10-21T22:03:01.656Z,50.98
2018-10-21T22:05:29.461Z,51.05
2018-10-21T22:07:57.433Z,51.01
2018-10-21T22:10:25.260Z,50.72
2018-10-21T22:12:53.076Z,51.06
2018-10-21T22:15:20.965Z,50.49
2018-10-21T22:17:48.851Z,50.60
2018-10-21T22:20:16.654Z,50.65
2018-10-21T22:22:44.524Z,50.43
2018-10-21T22:25:12.334Z,50.59
2018-10-21T22:27:40.168Z,50.63
2018-10-21T22:30:09.609Z,50.55
2018-10-21T22:32:37.347Z,50.90
2018-10-21T22:35:06.294Z,50.83
2018-10-21T22:37:34.502Z,50.41
2018-10-21T22:40:02.337Z,50.22
2018-10-21T22:42:30.739Z,50.43
2018-10-21T22:44:58.557Z,50.49
2018-10-21T22:47:26.400Z,50.11
2018-10-21T22:49:54.269Z,50.32
2018-10-21T22:52:22.089Z,50.22
2018-10-21T22:54:50.240Z,50.20
2018-10-21T22:57:19.380Z,50.70
2018-10-21T22:59:48.655Z,50.32
2018-10-21T23:02:16.683Z,50.38
2018-10-21T23:04:45.236Z,50.69
2018-10-21T23:07:13.047Z,50.64
2018-10-21T23:09:40.836Z,50.69
2018-10-21T23:12:08.830Z,50.54
2018-10-21T23:14:36.871Z,50.52
2018-10-21T23:17:04.895Z,50.47
2018-10-21T23:19:40.860Z,50.37
2018-10-21T23:22:09.038Z,50.33
2018-10-21T23:24:37.649Z,50.50
2018-10-21T23:27:06.031Z,50.55
2018-10-21T23:29:33.872Z,50.53
2018-10-21T23:32:01.696Z,50.55
2018-10-21T23:34:29.551Z,50.52
2018-10-21T23:36:57.328Z,50.35
2018-10-21T23:39:26.003Z,50.48
2018-10-21T23:41:53.813Z,50.41
2018-10-21T23:44:21.763Z,50.57
2018-10-21T23:46:50.092Z,50.70
2018-10-21T23:49:18.235Z,50.41
2018-10-21T23:51:46.328Z,50.67
2018-10-21T23:54:14.218Z,50.95
2018-10-21T23:56:42.180Z,50.79
2018-10-21T23:59:10.846Z,50.88
